Dudley, Missouri
Current Conditions -  °F | °C
As of 1:53 AM on Monday 26 Jan 2015 (Local Time) from KPOF Reporting Station
Overcast Overcast  
Wind Chill: 28°   Ceiling: 1900
Heat Index: 36°   Visibility: 10mi
Dew Point: 29°   Wind: 13mph
Humidity: 76%   Direction: 340°NNW
Pressure: 30"   Gusts: NA
Location:  36.79°N, 90.09°W
Report Text: KPOF 260753Z AUTO 34011KT 10SM OVC019 02/M02 A3000 RMK AO2 SLP163 T00221017
Loading
Personal Weather Stations






























Interactive Weather Map New forecast layout! Learn more

10-Day Weather Forecast

Advertisements
Track Severe Weather on mobile